createdAt,value
2024-03-02T00:02:03.602Z,10.93
2024-03-02T00:07:05.568Z,9.29
2024-03-02T00:12:07.681Z,11.39
2024-03-02T00:17:22.272Z,9.63
2024-03-02T00:22:24.381Z,10.73
2024-03-02T00:27:26.397Z,9.76
2024-03-02T00:32:29.564Z,11.44
2024-03-02T00:37:31.249Z,10.81
2024-03-02T00:42:33.114Z,9.91
2024-03-02T00:47:40.295Z,10.87
2024-03-02T00:52:42.316Z,9.30
2024-03-02T00:57:45.241Z,11.25
2024-03-02T01:02:47.637Z,10.90
2024-03-02T01:07:49.290Z,9.90
2024-03-02T01:12:51.066Z,9.88
2024-03-02T01:17:55.820Z,11.04
2024-03-02T01:22:57.784Z,10.25
2024-03-02T01:27:59.540Z,10.98
2024-03-02T01:33:02.788Z,11.26
2024-03-02T01:38:07.133Z,11.33
2024-03-02T01:43:09.057Z,9.66
2024-03-02T01:48:10.794Z,9.99
2024-03-02T01:53:12.520Z,9.77
2024-03-02T01:58:14.352Z,9.66
2024-03-02T02:03:15.987Z,10.31
2024-03-02T02:08:17.980Z,8.77
2024-03-02T02:13:19.620Z,7.76
2024-03-02T02:18:21.349Z,9.81
2024-03-02T02:23:22.956Z,9.61
2024-03-02T02:28:24.591Z,9.17
2024-03-02T02:33:26.513Z,10.54
2024-03-02T02:38:28.238Z,9.58
2024-03-02T02:43:29.832Z,8.94
2024-03-02T02:48:31.444Z,8.68
2024-03-02T02:53:33.063Z,9.06
2024-03-02T02:58:34.667Z,9.55
2024-03-02T03:03:36.603Z,9.07
2024-03-02T03:08:38.198Z,8.07
2024-03-02T03:13:39.807Z,9.64
2024-03-02T03:18:41.412Z,9.44
2024-03-02T03:23:43.073Z,9.18
2024-03-02T03:28:44.755Z,9.93
2024-03-02T03:33:46.401Z,9.14
2024-03-02T03:38:48.097Z,8.61
2024-03-02T03:43:49.719Z,10.86
2024-03-02T03:48:51.916Z,9.18
2024-03-02T03:53:53.513Z,9.66
2024-03-02T03:58:55.082Z,7.76
2024-03-02T04:03:56.887Z,8.97
2024-03-02T04:08:58.573Z,7.87
2024-03-02T04:14:00.231Z,8.23
2024-03-02T04:19:01.816Z,8.91
2024-03-02T04:24:03.565Z,8.64
2024-03-02T04:29:05.312Z,8.35
2024-03-02T04:34:07.003Z,9.59
2024-03-02T04:39:10.845Z,8.91
2024-03-02T04:44:12.616Z,9.50
2024-03-02T04:49:14.286Z,8.80
2024-03-02T04:54:16.319Z,7.91
2024-03-02T04:59:21.695Z,9.45
2024-03-02T05:04:23.287Z,8.34
2024-03-02T05:09:24.942Z,8.33
2024-03-02T05:14:26.518Z,9.09
2024-03-02T05:19:28.072Z,7.84
2024-03-02T05:24:30.005Z,6.81
2024-03-02T05:29:31.654Z,8.75
2024-03-02T05:34:36.007Z,8.31
2024-03-02T05:39:37.828Z,8.47
2024-03-02T05:44:39.739Z,8.39
2024-03-02T05:49:41.584Z,8.55
2024-03-02T05:54:43.406Z,8.64
2024-03-02T05:59:45.111Z,8.19
2024-03-02T06:04:46.889Z,7.10
2024-03-02T06:09:51.952Z,8.33
2024-03-02T06:14:53.749Z,6.81
2024-03-02T06:19:55.462Z,9.21
2024-03-02T06:24:57.418Z,8.26
2024-03-02T06:29:59.084Z,8.17
2024-03-02T06:35:01.042Z,8.22
2024-03-02T06:40:03.707Z,9.43
2024-03-02T06:45:06.051Z,9.25
2024-03-02T06:50:08.378Z,9.11
2024-03-02T06:55:10.240Z,9.07
2024-03-02T07:00:12.471Z,9.26
2024-03-02T07:05:14.393Z,10.18
2024-03-02T07:10:16.095Z,10.41
2024-03-02T07:15:36.558Z,8.87
2024-03-02T07:20:40.227Z,9.56
2024-03-02T07:30:46.689Z,9.74
2024-03-02T07:35:48.468Z,9.29
2024-03-02T07:40:54.162Z,10.37
2024-03-02T07:45:56.908Z,9.81
2024-03-02T07:50:58.701Z,10.26
2024-03-02T07:56:03.626Z,11.92
2024-03-02T08:01:05.684Z,10.14
2024-03-02T08:06:08.010Z,10.91
2024-03-02T08:11:10.116Z,11.10
2024-03-02T08:16:11.844Z,11.34
2024-03-02T08:21:14.128Z,11.48
2024-03-02T08:26:15.929Z,10.74
2024-03-02T08:31:17.673Z,10.50
2024-03-02T08:36:20.552Z,9.40
2024-03-02T08:41:22.397Z,11.04
2024-03-02T08:46:24.104Z,11.10
2024-03-02T08:51:25.858Z,9.66
2024-03-02T08:56:27.872Z,9.20
2024-03-02T09:01:29.654Z,10.17
2024-03-02T09:06:31.566Z,11.43
2024-03-02T09:11:33.764Z,12.00
2024-03-02T09:16:35.601Z,11.88
2024-03-02T09:21:37.475Z,12.43
2024-03-02T09:26:39.188Z,11.05
2024-03-02T09:31:42.495Z,13.56
2024-03-02T09:36:44.631Z,13.80
2024-03-02T09:41:46.673Z,12.19
2024-03-02T09:46:51.450Z,14.15
2024-03-02T09:51:53.630Z,11.97
2024-03-02T09:56:55.885Z,13.89
2024-03-02T10:02:01.599Z,13.74
2024-03-02T10:07:17.925Z,12.44
2024-03-02T10:12:20.202Z,14.59
2024-03-02T10:17:21.892Z,13.65
2024-03-02T10:22:24.771Z,13.10
2024-03-02T10:27:31.176Z,13.95
2024-03-02T10:32:32.942Z,13.66
2024-03-02T10:37:34.776Z,13.79
2024-03-02T10:42:38.625Z,13.72
2024-03-02T10:47:40.435Z,14.69
2024-03-02T10:52:43.670Z,14.17
2024-03-02T10:57:57.744Z,14.22
2024-03-02T11:06:23.927Z,13.83
2024-03-02T11:11:36.015Z,13.65
2024-03-02T11:16:39.834Z,14.76
2024-03-02T11:21:42.050Z,13.72
2024-03-02T11:26:43.677Z,14.04
2024-03-02T11:32:03.817Z,13.73
2024-03-02T11:37:06.403Z,14.20
2024-03-02T11:42:10.559Z,15.35
2024-03-02T11:47:17.456Z,15.36
2024-03-02T11:52:19.634Z,13.99
2024-03-02T11:57:27.387Z,15.06
2024-03-02T12:02:30.214Z,15.13
2024-03-02T12:07:31.831Z,16.46
2024-03-02T12:12:33.519Z,14.77
2024-03-02T12:17:35.216Z,14.87
2024-03-02T12:22:36.915Z,15.43
2024-03-02T12:27:40.993Z,15.51
2024-03-02T12:32:42.856Z,15.86
2024-03-02T12:37:49.206Z,16.85
2024-03-02T12:42:51.811Z,15.37
2024-03-02T12:47:54.353Z,15.34
2024-03-02T12:52:56.973Z,16.14
2024-03-02T12:58:00.422Z,16.24
2024-03-02T13:03:04.534Z,17.10
2024-03-02T13:08:08.283Z,17.20
2024-03-02T13:13:10.179Z,15.96
2024-03-02T13:18:12.704Z,16.90
2024-03-02T13:23:14.424Z,15.21
2024-03-02T13:28:16.632Z,16.88
2024-03-02T13:33:23.458Z,17.48
2024-03-02T13:38:25.137Z,16.50
2024-03-02T13:43:26.888Z,16.47
2024-03-02T13:48:28.561Z,16.86
2024-03-02T13:53:30.250Z,15.29
2024-03-02T13:58:31.886Z,16.71
2024-03-02T14:03:33.582Z,16.28
2024-03-02T14:08:37.143Z,15.80
2024-03-02T14:13:38.754Z,17.25
2024-03-02T14:18:40.702Z,18.10
2024-03-02T14:23:42.570Z,17.77
2024-03-02T14:28:50.035Z,17.70
2024-03-02T14:33:54.451Z,16.83
2024-03-02T14:38:56.840Z,17.48
2024-03-02T14:43:59.313Z,17.24
2024-03-02T14:49:01.065Z,16.22
2024-03-02T14:54:03.968Z,17.58
2024-03-02T14:59:05.825Z,17.39
2024-03-02T15:04:07.793Z,16.65
2024-03-02T15:09:09.612Z,16.68
2024-03-02T15:14:11.350Z,16.23
2024-03-02T15:19:13.073Z,16.55
2024-03-02T15:24:19.324Z,16.85
2024-03-02T15:29:23.359Z,16.48
2024-03-02T15:34:28.327Z,16.16
2024-03-02T15:39:30.168Z,15.89
2024-03-02T15:44:33.094Z,15.68
2024-03-02T15:49:34.846Z,15.69
2024-03-02T15:54:36.483Z,16.19
2024-03-02T15:59:38.089Z,15.11
2024-03-02T16:04:39.743Z,15.84
2024-03-02T16:09:41.431Z,16.47
2024-03-02T16:14:43.073Z,15.98
2024-03-02T16:19:44.968Z,15.09
2024-03-02T16:24:46.663Z,15.57
2024-03-02T16:29:48.761Z,15.63
2024-03-02T16:34:50.434Z,15.13
2024-03-02T16:39:52.178Z,14.95
2024-03-02T16:44:56.145Z,15.60
2024-03-02T16:50:00.395Z,15.70
2024-03-02T16:55:04.894Z,15.73
2024-03-02T17:00:09.113Z,15.64
2024-03-02T17:05:10.888Z,14.56
2024-03-02T17:10:12.721Z,14.91
2024-03-02T17:15:14.669Z,14.54
2024-03-02T17:20:17.382Z,14.63
2024-03-02T17:25:19.060Z,14.35
2024-03-02T17:30:22.097Z,14.89
2024-03-02T17:35:23.758Z,14.00
2024-03-02T17:40:27.430Z,13.61
2024-03-02T17:45:31.096Z,14.49
2024-03-02T17:50:32.828Z,14.94
2024-03-02T17:55:34.510Z,15.65
2024-03-02T18:00:36.246Z,15.92
2024-03-02T18:05:38.095Z,16.07
2024-03-02T18:10:39.810Z,16.01
2024-03-02T18:15:41.450Z,15.38
2024-03-02T18:20:43.709Z,15.75
2024-03-02T18:25:48.369Z,14.28
2024-03-02T18:30:50.279Z,14.68
2024-03-02T18:35:52.160Z,15.11
2024-03-02T18:40:54.050Z,14.07
2024-03-02T18:45:56.920Z,14.31
2024-03-02T18:50:58.804Z,14.50
2024-03-02T18:56:00.443Z,13.95
2024-03-02T19:01:02.265Z,14.01
2024-03-02T19:06:04.328Z,13.80
2024-03-02T19:11:05.986Z,15.40
2024-03-02T19:16:12.892Z,14.16
2024-03-02T19:21:14.741Z,14.02
2024-03-02T19:26:20.085Z,12.94
2024-03-02T19:31:22.191Z,14.00
2024-03-02T19:36:24.406Z,12.55
2024-03-02T19:41:26.114Z,14.20
2024-03-02T19:46:27.803Z,12.84
2024-03-02T19:51:29.739Z,13.54
2024-03-02T19:56:32.051Z,13.42
2024-03-02T20:01:33.851Z,13.52
2024-03-02T20:06:35.725Z,14.32
2024-03-02T20:11:37.476Z,13.23
2024-03-02T20:16:46.219Z,13.55
2024-03-02T20:21:48.084Z,13.15
2024-03-02T20:26:49.771Z,13.26
2024-03-02T20:31:51.504Z,14.81
2024-03-02T20:36:53.229Z,14.48
2024-03-02T20:41:54.962Z,14.71
2024-03-02T20:46:57.391Z,14.20
2024-03-02T20:52:00.924Z,13.70
2024-03-02T20:57:06.742Z,14.73
2024-03-02T21:02:08.730Z,13.63
2024-03-02T21:07:10.475Z,14.16
2024-03-02T21:12:12.168Z,14.88
2024-03-02T21:17:13.859Z,14.68
2024-03-02T21:22:16.135Z,13.05
2024-03-02T21:27:20.899Z,15.84
2024-03-02T21:32:23.013Z,15.52
2024-03-02T21:37:24.837Z,14.46
2024-03-02T21:42:26.739Z,13.90
2024-03-02T21:47:28.430Z,14.51
2024-03-02T21:52:30.132Z,14.61
2024-03-02T21:57:31.825Z,13.82
2024-03-02T22:02:33.867Z,14.93
2024-03-02T22:07:35.684Z,13.43
2024-03-02T22:12:37.445Z,12.99
2024-03-02T22:17:39.236Z,14.86
2024-03-02T22:22:41.872Z,14.32
2024-03-02T22:27:43.752Z,13.63
2024-03-02T22:32:45.785Z,15.33
2024-03-02T22:37:47.488Z,15.04
2024-03-02T22:42:49.260Z,13.85
2024-03-02T22:47:51.978Z,14.02
2024-03-02T22:52:53.708Z,12.66
2024-03-02T22:57:57.770Z,13.23
2024-03-02T23:02:59.520Z,14.07
2024-03-02T23:08:01.252Z,14.08
2024-03-02T23:13:03.005Z,12.71
2024-03-02T23:18:05.084Z,13.48
2024-03-02T23:23:07.076Z,14.15
2024-03-02T23:28:09.083Z,14.66
2024-03-02T23:33:12.604Z,14.12
2024-03-02T23:38:14.801Z,13.33
2024-03-02T23:43:16.566Z,12.73
2024-03-02T23:48:18.317Z,13.14
2024-03-02T23:53:20.993Z,13.76
2024-03-02T23:58:22.676Z,13.82
